createdAt,value
2018-11-20T00:01:20.303Z,54.60
2018-11-20T00:06:24.702Z,50.50
2018-11-20T00:11:29.094Z,49.20
2018-11-20T00:17:03.784Z,48.20
2018-11-20T00:19:55.699Z,47.50
2018-11-20T00:22:35.500Z,47.30
2018-11-20T00:25:41.244Z,46.70
2018-11-20T00:28:28.034Z,46.70
2018-11-20T00:31:19.100Z,47.50
2018-11-20T00:34:24.920Z,47.30
2018-11-20T00:37:05.585Z,47.10
2018-11-20T00:39:51.616Z,46.90
2018-11-20T00:42:46.558Z,47.00
2018-11-20T00:48:02.588Z,47.10
2018-11-20T00:53:06.197Z,46.40
2018-11-20T00:56:41.419Z,46.50
2018-11-20T00:59:29.868Z,46.70
2018-11-20T01:02:17.236Z,46.80
2018-11-20T01:05:23.716Z,47.10
2018-11-20T01:08:17.544Z,47.20
2018-11-20T01:11:04.281Z,47.40
2018-11-20T01:14:07.652Z,47.50
2018-11-20T01:16:54.956Z,47.00
2018-11-20T01:19:41.467Z,47.40
2018-11-20T01:22:28.263Z,47.80
2018-11-20T01:25:36.544Z,47.70
2018-11-20T01:28:24.783Z,47.80
2018-11-20T01:31:16.502Z,48.00
2018-11-20T01:34:35.844Z,48.90
2018-11-20T01:37:22.447Z,49.00
2018-11-20T01:40:13.514Z,49.10
2018-11-20T01:42:59.929Z,49.40
2018-11-20T01:45:29.570Z,49.50
2018-11-20T01:48:07.321Z,48.80
2018-11-20T01:50:44.210Z,48.50
2018-11-20T01:53:36.369Z,48.20
2018-11-20T01:56:33.230Z,48.40
2018-11-20T01:59:09.741Z,48.40
2018-11-20T02:02:06.918Z,48.50
2018-11-20T02:04:55.107Z,48.40
2018-11-20T02:07:34.528Z,48.30
2018-11-20T02:10:21.152Z,48.30
2018-11-20T02:13:43.516Z,48.20
2018-11-20T02:16:37.272Z,48.20
2018-11-20T02:19:31.142Z,48.00
2018-11-20T02:22:26.023Z,48.30
2018-11-20T02:25:36.181Z,47.70
2018-11-20T02:28:20.066Z,48.30
2018-11-20T02:31:01.196Z,48.20
2018-11-20T02:33:57.997Z,47.90
2018-11-20T02:36:48.937Z,47.90
2018-11-20T02:39:35.444Z,47.70
2018-11-20T02:42:22.286Z,47.30
2018-11-20T02:47:23.191Z,47.50
2018-11-20T02:50:09.756Z,47.90
2018-11-20T02:53:00.585Z,47.90
2018-11-20T02:56:04.678Z,47.70
2018-11-20T02:58:48.899Z,47.60
2018-11-20T03:01:26.726Z,48.00
2018-11-20T03:04:32.404Z,47.60
2018-11-20T03:07:19.117Z,47.90
2018-11-20T03:10:05.468Z,49.10
2018-11-20T03:12:54.189Z,48.70
2018-11-20T03:16:04.167Z,49.70
2018-11-20T03:18:41.570Z,48.80
2018-11-20T03:21:25.920Z,48.20
2018-11-20T03:24:31.692Z,48.40
2018-11-20T03:27:13.807Z,48.20
2018-11-20T03:30:49.328Z,48.00
2018-11-20T03:33:26.307Z,47.70
2018-11-20T03:36:12.775Z,48.80
2018-11-20T03:38:59.379Z,48.10
2018-11-20T03:41:48.158Z,48.00
2018-11-20T03:44:48.579Z,47.70
2018-11-20T03:47:27.717Z,47.90
2018-11-20T03:50:14.256Z,47.60
2018-11-20T03:53:00.877Z,47.40
2018-11-20T03:55:57.174Z,47.90
2018-11-20T03:58:49.468Z,47.80
2018-11-20T04:01:55.687Z,47.70
2018-11-20T04:04:50.916Z,47.40
2018-11-20T04:07:37.539Z,47.50
2018-11-20T04:10:22.993Z,47.50
2018-11-20T04:12:58.552Z,47.50
2018-11-20T04:16:14.823Z,47.80
2018-11-20T04:19:03.017Z,47.80
2018-11-20T04:22:00.260Z,47.40
2018-11-20T04:24:28.998Z,47.70
2018-11-20T04:27:06.369Z,47.70
2018-11-20T04:29:55.031Z,47.70
2018-11-20T04:32:52.116Z,48.20
2018-11-20T04:38:30.245Z,48.40
2018-11-20T04:41:18.602Z,48.20
2018-11-20T04:44:22.832Z,47.80
2018-11-20T04:47:17.426Z,47.40
2018-11-20T04:50:14.471Z,46.90
2018-11-20T04:53:08.829Z,47.00
2018-11-20T04:58:18.341Z,46.70
2018-11-20T05:08:23.362Z,46.80
2018-11-20T05:13:26.939Z,46.70
2018-11-20T05:16:27.053Z,46.60
2018-11-20T05:19:15.231Z,47.10
2018-11-20T05:22:07.845Z,47.20
2018-11-20T05:25:15.085Z,48.60
2018-11-20T05:28:15.163Z,48.20
2018-11-20T05:31:06.174Z,48.00
2018-11-20T05:34:16.256Z,47.30
2018-11-20T05:36:55.792Z,46.90
2018-11-20T05:39:40.647Z,46.10
2018-11-20T05:42:25.030Z,45.80
2018-11-20T05:45:35.277Z,45.10
2018-11-20T05:48:21.798Z,44.50
2018-11-20T05:51:12.654Z,44.60
2018-11-20T05:54:18.638Z,44.00
2018-11-20T05:56:56.878Z,44.10
2018-11-20T05:59:36.421Z,43.40
2018-11-20T06:02:42.827Z,43.20
2018-11-20T06:05:38.667Z,43.20
2018-11-20T06:08:25.597Z,43.00
2018-11-20T06:11:19.545Z,42.90
2018-11-20T06:14:44.772Z,42.90
2018-11-20T06:17:36.310Z,43.10
2018-11-20T06:20:26.857Z,42.10
2018-11-20T06:23:27.310Z,42.50
2018-11-20T06:26:13.649Z,42.40
2018-11-20T06:28:50.598Z,43.20
2018-11-20T06:31:44.299Z,43.00
2018-11-20T06:36:48.469Z,43.40
2018-11-20T06:39:37.498Z,43.90
2018-11-20T06:42:21.196Z,43.80
2018-11-20T06:45:26.356Z,43.50
2018-11-20T06:48:20.582Z,42.80
2018-11-20T06:51:14.448Z,42.60
2018-11-20T06:54:27.282Z,42.80
2018-11-20T06:57:30.597Z,42.80
2018-11-20T07:00:17.310Z,42.70
2018-11-20T07:03:11.393Z,42.20
2018-11-20T07:06:33.678Z,43.30
2018-11-20T07:09:20.563Z,42.50
2018-11-20T07:12:14.479Z,43.50
2018-11-20T07:15:32.407Z,43.00
2018-11-20T07:18:18.967Z,43.20
2018-11-20T07:21:02.577Z,42.60
2018-11-20T07:24:23.437Z,42.00
2018-11-20T07:29:31.399Z,41.80
2018-11-20T07:32:22.291Z,41.70
2018-11-20T07:35:47.562Z,42.30
2018-11-20T07:38:34.168Z,42.30
2018-11-20T07:41:32.639Z,43.00
2018-11-20T07:44:30.352Z,43.00
2018-11-20T07:47:08.320Z,44.00
2018-11-20T07:49:56.606Z,43.30
2018-11-20T07:52:50.425Z,43.20
2018-11-20T07:57:47.885Z,42.90
2018-11-20T08:00:41.862Z,43.30
2018-11-20T08:03:39.196Z,43.10
2018-11-20T08:06:25.912Z,43.40
2018-11-20T08:09:12.990Z,43.10
2018-11-20T08:12:00.707Z,43.40
2018-11-20T08:15:16.738Z,43.20
2018-11-20T08:17:55.459Z,43.30
2018-11-20T08:20:39.139Z,43.30
2018-11-20T08:23:32.951Z,44.30
2018-11-20T08:26:19.687Z,44.10
2018-11-20T08:29:01.824Z,44.10
2018-11-20T08:31:51.781Z,44.20
2018-11-20T08:39:56.936Z,44.40
2018-11-20T08:43:00.244Z,44.00
2018-11-20T08:46:18.425Z,44.80
2018-11-20T08:48:58.061Z,44.20
2018-11-20T08:51:39.753Z,44.40
2018-11-20T08:54:46.977Z,44.20
2018-11-20T08:57:33.656Z,44.50
2018-11-20T09:00:20.297Z,44.50
2018-11-20T09:03:06.986Z,44.30
2018-11-20T09:06:12.437Z,44.20
2018-11-20T09:08:59.066Z,44.30
2018-11-20T09:11:59.033Z,44.00
2018-11-20T09:15:04.750Z,44.10
2018-11-20T09:17:50.636Z,44.00
2018-11-20T09:20:39.005Z,44.10
2018-11-20T09:23:29.825Z,44.10
2018-11-20T09:26:12.838Z,44.40
2018-11-20T09:28:59.770Z,44.40
2018-11-20T09:31:46.593Z,43.80
2018-11-20T09:43:25.332Z,44.30
2018-11-20T09:45:55.310Z,43.70
2018-11-20T09:53:30.522Z,43.80
2018-11-20T10:01:21.482Z,43.80
2018-11-20T10:06:24.359Z,44.50
2018-11-20T10:13:58.771Z,44.00
2018-11-20T10:16:45.506Z,44.20
2018-11-20T10:19:31.899Z,44.10
2018-11-20T10:22:19.514Z,43.90
2018-11-20T10:27:21.025Z,44.00
2018-11-20T10:34:59.358Z,43.60
2018-11-20T10:37:43.016Z,43.60
2018-11-20T10:40:31.230Z,43.70
2018-11-20T10:43:21.939Z,44.20
2018-11-20T10:46:04.871Z,45.10
2018-11-20T10:48:58.624Z,44.50
2018-11-20T10:51:46.768Z,44.40
2018-11-20T10:54:53.969Z,44.00
2018-11-20T10:57:53.823Z,44.80
2018-11-20T11:00:40.707Z,45.80
2018-11-20T11:03:19.115Z,45.20
2018-11-20T11:06:18.923Z,44.50
2018-11-20T11:09:06.720Z,45.20
2018-11-20T11:12:13.828Z,44.50
2018-11-20T11:15:19.558Z,44.40
2018-11-20T11:18:09.134Z,44.00
2018-11-20T11:20:55.622Z,43.80
2018-11-20T11:23:58.622Z,43.40
2018-11-20T11:26:45.153Z,43.40
2018-11-20T11:29:31.613Z,42.70
2018-11-20T11:32:18.190Z,42.70
2018-11-20T11:34:48.001Z,42.70
2018-11-20T11:37:34.490Z,43.30
2018-11-20T11:40:28.329Z,43.20
2018-11-20T11:43:11.315Z,42.90
2018-11-20T11:46:16.985Z,42.80
2018-11-20T11:49:03.771Z,43.50
2018-11-20T11:51:50.217Z,43.20
2018-11-20T11:54:47.009Z,43.20
2018-11-20T11:57:33.855Z,43.40
2018-11-20T12:00:33.422Z,43.50
2018-11-20T12:03:20.234Z,43.50
2018-11-20T12:05:56.958Z,43.80
2018-11-20T12:08:36.651Z,43.60
2018-11-20T12:11:23.599Z,43.90
2018-11-20T12:14:29.228Z,43.70
2018-11-20T12:17:11.749Z,43.60
2018-11-20T12:19:58.420Z,43.80
2018-11-20T12:22:39.538Z,43.60
2018-11-20T12:25:43.584Z,43.20
2018-11-20T12:28:40.391Z,43.20
2018-11-20T12:31:31.590Z,43.20
2018-11-20T12:34:49.325Z,43.50
2018-11-20T12:37:52.383Z,43.00
2018-11-20T12:40:52.485Z,42.60
2018-11-20T12:43:38.973Z,43.00
2018-11-20T12:46:25.639Z,42.60
2018-11-20T12:49:32.119Z,43.10
2018-11-20T12:52:20.089Z,43.80
2018-11-20T12:55:30.308Z,43.40
2018-11-20T12:58:09.994Z,43.30
2018-11-20T13:00:59.241Z,43.20
2018-11-20T13:03:44.820Z,43.00
2018-11-20T13:06:15.371Z,43.00
2018-11-20T13:09:00.984Z,43.90
2018-11-20T13:12:00.609Z,44.10
2018-11-20T13:19:45.191Z,43.60
2018-11-20T13:22:37.439Z,43.40
2018-11-20T13:25:56.228Z,43.80
2018-11-20T13:28:56.230Z,44.10
2018-11-20T13:31:44.701Z,43.80
2018-11-20T13:34:43.627Z,43.90
2018-11-20T13:37:32.029Z,43.80
2018-11-20T13:40:20.835Z,43.90
2018-11-20T13:43:07.272Z,43.40
2018-11-20T13:46:18.006Z,43.80
2018-11-20T13:49:02.586Z,43.50
2018-11-20T13:51:48.873Z,43.40
2018-11-20T13:55:02.033Z,43.10
2018-11-20T13:57:46.035Z,43.10
2018-11-20T14:00:32.417Z,43.50
2018-11-20T14:03:11.211Z,43.90
2018-11-20T14:06:27.756Z,43.40
2018-11-20T14:09:45.670Z,43.70
2018-11-20T14:12:25.225Z,43.70
2018-11-20T14:17:52.130Z,44.30
2018-11-20T14:20:46.006Z,44.00
2018-11-20T14:23:40.361Z,44.10
2018-11-20T14:26:24.662Z,44.00
2018-11-20T14:29:05.073Z,44.10
2018-11-20T14:31:51.573Z,43.90
2018-11-20T14:34:51.659Z,43.90
2018-11-20T14:37:46.128Z,44.10
2018-11-20T14:40:39.775Z,43.90
2018-11-20T14:43:16.840Z,44.10
2018-11-20T14:46:10.846Z,44.10
2018-11-20T14:49:01.228Z,43.90
2018-11-20T14:51:50.142Z,43.80
2018-11-20T14:55:12.156Z,44.30
2018-11-20T14:57:58.681Z,44.00
2018-11-20T15:00:45.340Z,44.60
2018-11-20T15:03:37.042Z,44.50
2018-11-20T15:06:24.081Z,44.20
2018-11-20T15:09:19.015Z,44.70
2018-11-20T15:12:05.159Z,44.80
2018-11-20T15:15:10.072Z,44.60
2018-11-20T15:18:10.001Z,44.50
2018-11-20T15:20:58.240Z,44.70
2018-11-20T15:23:52.112Z,44.50
2018-11-20T15:26:38.660Z,44.40
2018-11-20T15:29:25.473Z,44.30
2018-11-20T15:32:13.934Z,44.00
2018-11-20T15:35:19.869Z,43.90
2018-11-20T15:38:06.460Z,43.90
2018-11-20T15:40:53.199Z,44.00
2018-11-20T15:43:41.387Z,44.30
2018-11-20T15:46:29.552Z,44.40
2018-11-20T15:49:16.128Z,44.20
2018-11-20T15:52:02.638Z,44.20
2018-11-20T15:55:08.181Z,44.00
2018-11-20T15:57:59.907Z,44.40
2018-11-20T16:00:46.958Z,44.80
2018-11-20T16:03:33.524Z,44.90
2018-11-20T16:06:15.940Z,44.70
2018-11-20T16:09:02.675Z,44.80
2018-11-20T16:11:49.255Z,44.70
2018-11-20T16:14:50.480Z,44.70
2018-11-20T16:17:37.210Z,44.40
2018-11-20T16:20:18.990Z,44.60
2018-11-20T16:23:12.939Z,44.40
2018-11-20T16:28:24.559Z,44.20
2018-11-20T16:31:11.480Z,44.30
2018-11-20T16:34:23.409Z,44.20
2018-11-20T16:37:04.040Z,44.00
2018-11-20T16:40:06.558Z,44.50
2018-11-20T16:43:00.653Z,44.90
2018-11-20T16:46:09.633Z,46.80
2018-11-20T16:48:58.215Z,45.70
2018-11-20T16:51:44.717Z,47.10
2018-11-20T16:54:54.893Z,47.60
2018-11-20T16:57:43.042Z,47.60
2018-11-20T17:00:29.944Z,48.30
2018-11-20T17:03:22.890Z,48.80
2018-11-20T17:06:03.483Z,48.90
2018-11-20T17:08:51.674Z,49.30
2018-11-20T17:11:45.677Z,49.40
2018-11-20T17:14:41.010Z,49.50
2018-11-20T17:17:25.930Z,49.30
2018-11-20T17:20:10.716Z,50.00
2018-11-20T17:23:04.032Z,50.10
2018-11-20T17:26:16.325Z,50.20
2018-11-20T17:29:03.148Z,50.20
2018-11-20T17:31:49.651Z,50.50
2018-11-20T17:34:55.474Z,50.60
2018-11-20T17:38:01.601Z,50.60
2018-11-20T17:40:48.670Z,50.80
2018-11-20T17:43:52.043Z,50.70
2018-11-20T17:46:40.566Z,50.80
2018-11-20T17:49:28.887Z,51.00
2018-11-20T17:52:19.376Z,50.90
2018-11-20T17:55:33.282Z,50.90
2018-11-20T17:58:21.668Z,50.70
2018-11-20T18:01:18.468Z,51.00
2018-11-20T18:08:52.161Z,51.90
2018-11-20T18:13:56.551Z,51.80
2018-11-20T18:16:59.705Z,51.70
2018-11-20T18:19:47.884Z,51.50
2018-11-20T18:22:31.418Z,51.40
2018-11-20T18:27:32.008Z,51.70
2018-11-20T18:30:24.304Z,51.80
2018-11-20T18:33:10.934Z,52.00
2018-11-20T18:36:06.877Z,52.10
2018-11-20T18:39:13.168Z,52.20
2018-11-20T18:42:04.251Z,52.10
2018-11-20T18:45:17.227Z,52.40
2018-11-20T18:48:09.770Z,52.60
2018-11-20T18:50:54.311Z,52.20
2018-11-20T18:53:41.422Z,52.30
2018-11-20T18:56:41.769Z,52.10
2018-11-20T18:59:25.747Z,52.20
2018-11-20T19:02:23.330Z,52.20
2018-11-20T19:07:44.753Z,52.20
2018-11-20T19:18:17.054Z,52.40
2018-11-20T19:21:36.055Z,52.30
2018-11-20T19:24:22.554Z,52.10
2018-11-20T19:27:24.968Z,52.00
2018-11-20T19:30:30.369Z,51.80
2018-11-20T19:33:15.782Z,51.60
2018-11-20T19:35:56.559Z,51.70
2018-11-20T19:38:39.456Z,51.80
2018-11-20T19:41:25.508Z,51.90
2018-11-20T19:44:12.020Z,52.00
2018-11-20T19:47:05.072Z,51.60
2018-11-20T19:49:52.704Z,52.10
2018-11-20T19:52:42.564Z,51.80
2018-11-20T19:55:48.212Z,51.80
2018-11-20T19:58:38.713Z,51.70
2018-11-20T20:01:28.165Z,51.80
2018-11-20T20:04:18.396Z,52.10
2018-11-20T20:07:04.915Z,52.10
2018-11-20T20:09:45.677Z,52.00
2018-11-20T20:12:32.098Z,51.80
2018-11-20T20:15:17.166Z,51.60
2018-11-20T20:18:22.431Z,51.80
2018-11-20T20:21:20.230Z,51.40
2018-11-20T20:24:13.497Z,51.20
2018-11-20T20:27:03.598Z,51.10
2018-11-20T20:29:49.563Z,51.10
2018-11-20T20:32:25.372Z,51.40
2018-11-20T20:35:11.043Z,51.50
2018-11-20T20:37:57.181Z,51.30
2018-11-20T20:40:53.462Z,50.90
2018-11-20T20:43:48.215Z,51.00
2018-11-20T20:46:35.574Z,50.80
2018-11-20T20:49:16.559Z,51.00
2018-11-20T20:52:02.473Z,51.10
2018-11-20T20:54:55.107Z,51.00
2018-11-20T20:57:41.762Z,50.90
2018-11-20T21:00:29.564Z,51.00
2018-11-20T21:03:06.514Z,50.90
2018-11-20T21:05:52.266Z,50.70
2018-11-20T21:08:51.430Z,50.60
2018-11-20T21:11:40.093Z,50.30
2018-11-20T21:14:26.327Z,50.40
2018-11-20T21:17:13.693Z,50.30
2018-11-20T21:20:01.964Z,50.40
2018-11-20T21:22:50.252Z,50.90
2018-11-20T21:25:38.706Z,50.20
2018-11-20T21:28:24.966Z,49.90
2018-11-20T21:31:18.309Z,49.70
2018-11-20T21:34:04.000Z,49.80
2018-11-20T21:36:45.516Z,49.70
2018-11-20T21:39:28.478Z,49.60
2018-11-20T21:42:05.957Z,49.70
2018-11-20T21:44:51.716Z,49.20
2018-11-20T21:47:48.400Z,49.40
2018-11-20T21:50:42.639Z,49.20
2018-11-20T21:53:32.513Z,49.40
2018-11-20T21:56:18.572Z,49.50
2018-11-20T21:59:06.322Z,49.50
2018-11-20T22:01:54.140Z,49.20
2018-11-20T22:04:35.237Z,49.50
2018-11-20T22:07:19.506Z,49.10
2018-11-20T22:10:06.826Z,49.10
2018-11-20T22:12:52.855Z,49.20
2018-11-20T22:15:52.003Z,49.40
2018-11-20T22:18:54.479Z,49.20
2018-11-20T22:21:37.873Z,49.10
2018-11-20T22:24:24.124Z,49.20
2018-11-20T22:27:20.335Z,49.10
2018-11-20T22:30:04.544Z,49.10
2018-11-20T22:32:50.872Z,49.10
2018-11-20T22:35:36.857Z,48.90
2018-11-20T22:38:12.954Z,49.00
2018-11-20T22:40:56.892Z,49.20
2018-11-20T22:43:37.310Z,49.40
2018-11-20T22:46:24.628Z,49.70
2018-11-20T22:49:10.721Z,49.90
2018-11-20T22:51:48.788Z,49.50
2018-11-20T22:54:29.708Z,49.40
2018-11-20T22:57:06.173Z,49.40
2018-11-20T22:59:53.487Z,49.40
2018-11-20T23:02:39.342Z,49.40
2018-11-20T23:05:34.546Z,49.40
2018-11-20T23:08:02.683Z,48.90
2018-11-20T23:10:30.808Z,48.90
2018-11-20T23:12:58.937Z,48.70
2018-11-20T23:15:27.054Z,49.30
2018-11-20T23:17:55.240Z,49.40
2018-11-20T23:20:23.338Z,49.50
2018-11-20T23:22:51.475Z,49.10
2018-11-20T23:25:19.600Z,49.60
2018-11-20T23:27:47.745Z,49.40
2018-11-20T23:30:16.651Z,49.20
2018-11-20T23:32:44.793Z,49.00
2018-11-20T23:35:13.388Z,48.80
2018-11-20T23:37:42.131Z,48.90
2018-11-20T23:40:11.442Z,49.00
2018-11-20T23:42:39.683Z,48.70
2018-11-20T23:45:09.666Z,48.80
2018-11-20T23:47:37.822Z,49.50
2018-11-20T23:50:07.993Z,48.70
2018-11-20T23:52:36.563Z,48.70
2018-11-20T23:55:06.359Z,48.80
2018-11-20T23:57:34.523Z,48.60
